createdAt,value
2022-11-08T00:02:01.904Z,100322.19
2022-11-08T00:04:48.780Z,100320.47
2022-11-08T00:07:48.264Z,100316.75
2022-11-08T00:10:42.009Z,100321.25
2022-11-08T00:13:41.074Z,100324.75
2022-11-08T00:16:24.983Z,100326.06
2022-11-08T00:19:07.959Z,100326.38
2022-11-08T00:21:51.045Z,100323.97
2022-11-08T00:24:47.985Z,100328.66
2022-11-08T00:27:27.229Z,100329.25
2022-11-08T00:30:02.399Z,100325.88
2022-11-08T00:32:42.919Z,100326.56
2022-11-08T00:35:26.509Z,100330.00
2022-11-08T00:38:15.485Z,100330.06
2022-11-08T00:41:04.210Z,100328.84
2022-11-08T00:43:44.923Z,100322.16
2022-11-08T00:46:29.764Z,100316.13
2022-11-08T00:49:19.989Z,100320.91
2022-11-08T00:52:10.502Z,100322.06
2022-11-08T00:54:50.985Z,100308.59
2022-11-08T00:57:58.349Z,100318.72
2022-11-08T01:00:57.089Z,100318.34
2022-11-08T01:03:37.512Z,100314.53
2022-11-08T01:06:23.089Z,100313.28
2022-11-08T01:09:09.294Z,100307.81
2022-11-08T01:11:54.027Z,100319.31
2022-11-08T01:14:43.934Z,100318.41
2022-11-08T01:17:32.900Z,100318.88
2022-11-08T01:20:14.954Z,100315.38
2022-11-08T01:22:53.063Z,100327.75
2022-11-08T01:25:38.703Z,100315.69
2022-11-08T01:28:22.977Z,100312.00
2022-11-08T01:31:09.680Z,100313.69
2022-11-08T01:33:52.875Z,100312.31
2022-11-08T01:36:31.954Z,100317.25
2022-11-08T01:39:16.377Z,100319.22
2022-11-08T01:42:03.014Z,100320.50
2022-11-08T01:45:08.581Z,100318.91
2022-11-08T01:47:45.485Z,100320.75
2022-11-08T01:50:31.436Z,100318.53
2022-11-08T01:53:07.075Z,100317.25
2022-11-08T01:55:48.202Z,100320.75
2022-11-08T01:58:37.984Z,100312.06
2022-11-08T02:01:19.057Z,100313.44
2022-11-08T02:04:00.938Z,100309.47
2022-11-08T02:06:49.821Z,100313.53
2022-11-08T02:09:31.110Z,100303.78
2022-11-08T02:12:06.034Z,100306.56
2022-11-08T02:14:43.557Z,100302.28
2022-11-08T02:17:34.465Z,100304.09
2022-11-08T02:20:14.653Z,100304.28
2022-11-08T02:23:28.696Z,100303.72
2022-11-08T02:26:12.917Z,100305.63
2022-11-08T02:28:52.242Z,100300.16
2022-11-08T02:31:35.540Z,100297.84
2022-11-08T02:34:26.893Z,100294.56
2022-11-08T02:37:08.444Z,100297.91
2022-11-08T02:39:49.818Z,100296.13
2022-11-08T02:42:32.752Z,100296.50
2022-11-08T02:45:07.978Z,100301.03
2022-11-08T02:47:54.541Z,100304.38
2022-11-08T02:50:35.053Z,100308.44
2022-11-08T02:53:11.224Z,100299.03
2022-11-08T02:56:05.593Z,100294.53
2022-11-08T02:58:51.581Z,100299.88
2022-11-08T03:01:40.467Z,100296.06
2022-11-08T03:04:25.449Z,100302.06
2022-11-08T03:07:13.755Z,100302.16
2022-11-08T03:09:54.302Z,100306.16
2022-11-08T03:12:41.258Z,100298.16
2022-11-08T03:15:34.755Z,100300.28
2022-11-08T03:18:23.998Z,100304.78
2022-11-08T03:21:09.649Z,100307.44
2022-11-08T03:23:58.063Z,100305.59
2022-11-08T03:26:47.836Z,100313.56
2022-11-08T03:29:34.963Z,100312.41
2022-11-08T03:32:25.680Z,100318.56
2022-11-08T03:35:09.841Z,100316.59
2022-11-08T03:38:04.736Z,100310.56
2022-11-08T03:40:53.869Z,100311.34
2022-11-08T03:43:41.310Z,100316.53
2022-11-08T03:46:25.389Z,100312.84
2022-11-08T03:49:03.193Z,100315.53
2022-11-08T03:51:50.254Z,100313.63
2022-11-08T03:54:37.888Z,100314.00
2022-11-08T03:57:17.106Z,100319.88
2022-11-08T04:00:07.014Z,100321.03
2022-11-08T04:03:03.160Z,100310.03
2022-11-08T04:05:54.029Z,100313.91
2022-11-08T04:08:34.783Z,100309.41
2022-11-08T04:11:42.706Z,100312.16
2022-11-08T04:14:44.601Z,100304.16
2022-11-08T04:17:46.646Z,100305.94
2022-11-08T04:20:48.523Z,100305.94
2022-11-08T04:23:29.944Z,100304.28
2022-11-08T04:26:14.969Z,100296.69
2022-11-08T04:28:55.977Z,100300.94
2022-11-08T04:31:44.105Z,100300.66
2022-11-08T04:34:27.005Z,100298.22
2022-11-08T04:37:17.035Z,100307.22
2022-11-08T04:40:05.080Z,100298.59
2022-11-08T04:42:45.008Z,100302.63
2022-11-08T04:45:31.225Z,100305.03
2022-11-08T04:48:17.957Z,100303.13
2022-11-08T04:50:58.770Z,100304.59
2022-11-08T04:53:47.016Z,100300.75
2022-11-08T04:56:32.710Z,100294.44
2022-11-08T04:59:16.815Z,100298.44
2022-11-08T05:02:11.020Z,100309.44
2022-11-08T05:04:54.890Z,100312.09
2022-11-08T05:07:40.949Z,100311.88
2022-11-08T05:10:23.990Z,100310.38
2022-11-08T05:13:08.940Z,100308.81
2022-11-08T05:15:49.885Z,100312.97
2022-11-08T05:18:37.932Z,100314.59
2022-11-08T05:21:34.663Z,100313.63
2022-11-08T05:24:27.006Z,100309.72
2022-11-08T05:27:12.722Z,100310.09
2022-11-08T05:30:08.107Z,100318.66
2022-11-08T05:32:54.572Z,100318.00
2022-11-08T05:35:49.498Z,100317.69
2022-11-08T05:38:38.843Z,100330.75
2022-11-08T05:41:33.147Z,100329.41
2022-11-08T05:44:17.822Z,100328.81
2022-11-08T05:47:09.331Z,100329.78
2022-11-08T05:49:54.966Z,100327.00
2022-11-08T05:52:38.301Z,100339.56
2022-11-08T05:55:21.530Z,100331.25
2022-11-08T05:58:05.047Z,100334.25
2022-11-08T06:00:57.087Z,100336.97
2022-11-08T06:03:45.445Z,100342.84
2022-11-08T06:06:34.408Z,100336.84
2022-11-08T06:09:17.823Z,100340.03
2022-11-08T06:12:10.150Z,100336.56
2022-11-08T06:14:59.930Z,100345.78
2022-11-08T06:17:57.748Z,100353.47
2022-11-08T06:20:51.389Z,100353.88
2022-11-08T06:23:40.924Z,100362.28
2022-11-08T06:26:24.915Z,100359.25
2022-11-08T06:29:09.145Z,100363.13
2022-11-08T06:31:55.823Z,100356.94
2022-11-08T06:34:57.475Z,100362.63
2022-11-08T06:37:42.904Z,100369.00
2022-11-08T06:40:24.438Z,100367.69
2022-11-08T06:43:14.968Z,100364.66
2022-11-08T06:45:58.796Z,100367.84
2022-11-08T06:48:42.546Z,100367.69
2022-11-08T06:51:31.477Z,100373.38
2022-11-08T06:54:28.062Z,100368.22
2022-11-08T06:57:17.751Z,100366.00
2022-11-08T07:00:15.199Z,100370.03
2022-11-08T07:03:04.132Z,100365.00
2022-11-08T07:05:50.808Z,100371.69
2022-11-08T07:08:41.024Z,100372.69
2022-11-08T07:11:23.852Z,100381.03
2022-11-08T07:14:04.014Z,100385.72
2022-11-08T07:16:47.938Z,100375.81
2022-11-08T07:19:47.685Z,100388.34
2022-11-08T07:22:34.369Z,100378.94
2022-11-08T07:25:22.225Z,100383.13
2022-11-08T07:28:09.600Z,100376.53
2022-11-08T07:30:59.895Z,100372.31
2022-11-08T07:33:45.938Z,100377.19
2022-11-08T07:36:41.923Z,100380.84
2022-11-08T07:39:22.945Z,100381.50
2022-11-08T07:42:11.495Z,100379.13
2022-11-08T07:45:02.914Z,100377.94
2022-11-08T07:47:46.943Z,100383.09
2022-11-08T07:50:44.448Z,100377.16
2022-11-08T07:53:30.942Z,100378.31
2022-11-08T07:56:12.134Z,100381.13
2022-11-08T07:59:02.163Z,100374.25
2022-11-08T08:01:48.043Z,100375.38
2022-11-08T08:04:34.424Z,100378.19
2022-11-08T08:07:26.125Z,100383.44
2022-11-08T08:10:10.908Z,100385.97
2022-11-08T08:12:46.794Z,100392.38
2022-11-08T08:15:29.831Z,100395.34
2022-11-08T08:18:06.950Z,100392.41
2022-11-08T08:20:50.014Z,100397.50
2022-11-08T08:23:51.634Z,100387.13
2022-11-08T08:26:36.769Z,100393.25
2022-11-08T08:29:21.609Z,100388.94
2022-11-08T08:35:15.790Z,100389.78
2022-11-08T08:38:11.231Z,100392.63
2022-11-08T08:40:56.730Z,100389.38
2022-11-08T08:43:45.739Z,100393.94
2022-11-08T08:46:37.283Z,100401.28
2022-11-08T08:49:29.005Z,100398.28
2022-11-08T08:55:06.111Z,100407.78
2022-11-08T08:57:48.683Z,100407.78
2022-11-08T09:03:32.003Z,100410.53
2022-11-08T09:06:15.935Z,100413.25
2022-11-08T09:08:58.100Z,100416.69
2022-11-08T09:11:42.003Z,100420.94
2022-11-08T09:14:28.740Z,100416.09
2022-11-08T09:17:09.210Z,100421.56
2022-11-08T09:20:08.523Z,100426.00
2022-11-08T09:22:51.043Z,100423.38
2022-11-08T09:25:44.002Z,100426.00
2022-11-08T09:28:23.319Z,100433.00
2022-11-08T09:31:07.475Z,100434.06
2022-11-08T09:33:58.742Z,100429.97
2022-11-08T09:36:51.401Z,100432.22
2022-11-08T09:39:44.584Z,100426.69
2022-11-08T09:42:57.284Z,100433.72
2022-11-08T09:45:44.915Z,100433.53
2022-11-08T09:48:51.954Z,100430.47
2022-11-08T09:51:37.253Z,100429.03
2022-11-08T09:54:46.125Z,100428.31
2022-11-08T09:57:35.804Z,100417.31
2022-11-08T10:00:17.941Z,100401.69
2022-11-08T10:03:04.682Z,100402.03
2022-11-08T10:05:56.347Z,100397.94
2022-11-08T10:08:55.745Z,100394.88
2022-11-08T10:12:18.291Z,100391.16
2022-11-08T10:15:28.032Z,100400.00
2022-11-08T10:18:44.597Z,100393.38
2022-11-08T10:22:00.483Z,100392.91
2022-11-08T10:24:49.247Z,100384.44
2022-11-08T10:27:45.759Z,100381.00
2022-11-08T10:30:28.130Z,100382.47
2022-11-08T10:33:40.363Z,100382.75
2022-11-08T10:36:26.419Z,100382.41
2022-11-08T10:39:09.994Z,100387.34
2022-11-08T10:42:10.016Z,100392.56
2022-11-08T10:44:48.552Z,100376.19
2022-11-08T10:47:31.883Z,100388.91
2022-11-08T10:50:34.026Z,100380.78
2022-11-08T10:53:22.639Z,100375.44
2022-11-08T10:56:35.521Z,100379.88
2022-11-08T10:59:35.709Z,100382.88
2022-11-08T11:02:38.944Z,100378.09
2022-11-08T11:06:04.034Z,100372.28
2022-11-08T11:08:58.337Z,100368.53
2022-11-08T11:11:45.914Z,100369.03
2022-11-08T11:14:37.764Z,100363.13
2022-11-08T11:17:39.091Z,100355.44
2022-11-08T11:20:33.901Z,100356.72
2022-11-08T11:23:20.063Z,100354.44
2022-11-08T11:25:57.742Z,100356.28
2022-11-08T11:28:44.983Z,100343.47
2022-11-08T11:31:27.938Z,100347.13
2022-11-08T11:34:23.677Z,100348.78
2022-11-08T11:37:16.285Z,100347.97
2022-11-08T11:40:17.812Z,100345.03
2022-11-08T11:43:13.788Z,100349.66
2022-11-08T11:45:55.874Z,100340.47
2022-11-08T11:48:49.853Z,100339.66
2022-11-08T11:51:43.424Z,100330.91
2022-11-08T11:54:29.004Z,100335.28
2022-11-08T11:57:23.214Z,100334.63
2022-11-08T12:00:20.467Z,100326.94
2022-11-08T12:03:27.404Z,100324.41
2022-11-08T12:07:03.739Z,100327.13
2022-11-08T12:10:22.754Z,100334.84
2022-11-08T12:13:11.961Z,100325.94
2022-11-08T12:16:47.919Z,100309.25
2022-11-08T12:19:37.217Z,100306.06
2022-11-08T12:22:57.906Z,100309.78
2022-11-08T12:26:20.003Z,100303.38
2022-11-08T12:29:22.629Z,100309.03
2022-11-08T12:32:46.889Z,100307.44
2022-11-08T12:36:10.774Z,100301.44
2022-11-08T12:39:18.049Z,100297.56
2022-11-08T12:42:32.454Z,100298.16
2022-11-08T12:45:17.983Z,100301.16
2022-11-08T12:48:11.664Z,100294.19
2022-11-08T12:51:21.869Z,100308.97
2022-11-08T12:54:29.704Z,100306.03
2022-11-08T12:57:16.471Z,100304.63
2022-11-08T12:59:56.568Z,100291.94
2022-11-08T13:02:45.642Z,100297.56
2022-11-08T13:05:54.104Z,100294.78
2022-11-08T13:08:50.886Z,100299.88
2022-11-08T13:11:55.058Z,100297.84
2022-11-08T13:14:41.317Z,100294.22
2022-11-08T13:17:32.974Z,100292.69
2022-11-08T13:20:48.392Z,100295.56
2022-11-08T13:23:36.016Z,100288.06
2022-11-08T13:26:50.174Z,100287.47
2022-11-08T13:29:36.734Z,100289.06
2022-11-08T13:32:52.714Z,100286.47
2022-11-08T13:35:42.558Z,100295.56
2022-11-08T13:39:05.494Z,100291.19
2022-11-08T13:42:21.126Z,100297.59
2022-11-08T13:45:25.807Z,100288.34
2022-11-08T13:48:26.319Z,100291.19
2022-11-08T13:51:27.166Z,100286.81
2022-11-08T13:54:20.076Z,100287.25
2022-11-08T13:57:06.599Z,100287.00
2022-11-08T14:00:05.928Z,100289.34
2022-11-08T14:02:58.806Z,100288.72
2022-11-08T14:05:51.934Z,100283.72
2022-11-08T14:08:50.805Z,100284.13
2022-11-08T14:11:52.335Z,100284.13
2022-11-08T14:14:53.596Z,100288.59
2022-11-08T14:18:05.154Z,100286.88
2022-11-08T14:20:54.839Z,100293.03
2022-11-08T14:23:42.884Z,100297.00
2022-11-08T14:26:34.758Z,100295.66
2022-11-08T14:29:31.487Z,100289.56
2022-11-08T14:32:28.954Z,100287.28
2022-11-08T14:35:27.302Z,100284.22
2022-11-08T14:38:10.650Z,100290.53
2022-11-08T14:41:38.017Z,100287.88
2022-11-08T14:44:26.662Z,100280.03
2022-11-08T14:47:42.207Z,100280.59
2022-11-08T14:50:35.028Z,100284.88
2022-11-08T14:53:35.635Z,100279.13
2022-11-08T14:56:44.266Z,100281.53
2022-11-08T14:59:30.430Z,100282.34
2022-11-08T15:02:28.764Z,100291.00
2022-11-08T15:05:36.338Z,100283.94
2022-11-08T15:08:38.305Z,100287.56
2022-11-08T15:11:52.488Z,100292.59
2022-11-08T15:14:40.867Z,100290.91
2022-11-08T15:17:46.227Z,100289.53
2022-11-08T15:20:33.063Z,100294.06
2022-11-08T15:23:28.261Z,100290.53
2022-11-08T15:26:37.957Z,100284.88
2022-11-08T15:29:36.544Z,100290.34
2022-11-08T15:32:23.276Z,100291.56
2022-11-08T15:35:05.100Z,100294.22
2022-11-08T15:37:48.544Z,100291.44
2022-11-08T15:40:39.978Z,100297.31
2022-11-08T15:43:50.899Z,100298.25
2022-11-08T15:46:54.276Z,100294.78
2022-11-08T15:49:48.966Z,100299.69
2022-11-08T15:52:35.317Z,100292.63
2022-11-08T15:55:21.602Z,100293.41
2022-11-08T15:58:07.302Z,100284.97
2022-11-08T16:00:58.079Z,100288.19
2022-11-08T16:03:54.749Z,100291.19
2022-11-08T16:06:46.997Z,100297.75
2022-11-08T16:10:01.181Z,100302.78
2022-11-08T16:12:46.321Z,100307.88
2022-11-08T16:15:40.629Z,100300.44
2022-11-08T16:18:38.225Z,100290.91
2022-11-08T16:21:28.885Z,100295.00
2022-11-08T16:24:29.699Z,100297.38
2022-11-08T16:27:20.053Z,100307.03
2022-11-08T16:30:23.872Z,100302.75
2022-11-08T16:33:36.137Z,100304.72
2022-11-08T16:36:29.889Z,100313.06
2022-11-08T16:39:26.335Z,100306.66
2022-11-08T16:42:13.232Z,100300.00
2022-11-08T16:45:01.883Z,100315.94
2022-11-08T16:47:50.008Z,100304.53
2022-11-08T16:50:45.194Z,100312.25
2022-11-08T16:53:32.382Z,100310.19
2022-11-08T16:56:33.891Z,100319.94
2022-11-08T16:59:21.036Z,100316.31
2022-11-08T17:02:11.000Z,100312.69
2022-11-08T17:04:59.367Z,100309.06
2022-11-08T17:07:45.508Z,100298.41
2022-11-08T17:13:40.111Z,100311.88
2022-11-08T17:16:22.944Z,100318.72
2022-11-08T17:19:12.311Z,100313.97
2022-11-08T17:22:03.580Z,100316.66
2022-11-08T17:24:52.986Z,100319.63
2022-11-08T17:27:36.060Z,100320.56
2022-11-08T17:30:27.344Z,100313.50
2022-11-08T17:33:21.229Z,100311.81
2022-11-08T17:36:09.070Z,100308.78
2022-11-08T17:38:59.903Z,100318.25
2022-11-08T17:41:46.916Z,100311.75
2022-11-08T17:44:33.300Z,100321.09
2022-11-08T17:47:18.961Z,100323.41
2022-11-08T17:49:58.029Z,100315.72
2022-11-08T17:52:50.760Z,100320.72
2022-11-08T17:55:35.917Z,100313.13
2022-11-08T17:58:22.260Z,100305.16
2022-11-08T18:01:16.646Z,100314.91
2022-11-08T18:04:06.505Z,100311.56
2022-11-08T18:06:47.022Z,100312.84
2022-11-08T18:09:32.549Z,100315.72
2022-11-08T18:12:26.713Z,100311.56
2022-11-08T18:15:16.762Z,100309.91
2022-11-08T18:18:06.934Z,100308.88
2022-11-08T18:21:02.093Z,100302.94
2022-11-08T18:23:47.964Z,100303.31
2022-11-08T18:26:43.272Z,100306.00
2022-11-08T18:29:30.780Z,100302.00
2022-11-08T18:32:11.929Z,100304.13
2022-11-08T18:34:55.084Z,100301.44
2022-11-08T18:37:46.068Z,100304.41
2022-11-08T18:40:26.801Z,100301.81
2022-11-08T18:43:12.786Z,100306.66
2022-11-08T18:46:12.570Z,100308.03
2022-11-08T18:48:56.643Z,100309.78
2022-11-08T18:51:54.880Z,100312.22
2022-11-08T18:54:38.926Z,100308.50
2022-11-08T18:57:30.663Z,100305.91
2022-11-08T19:00:13.743Z,100295.63
2022-11-08T19:03:07.067Z,100301.19
2022-11-08T19:09:00.604Z,100300.78
2022-11-08T19:11:59.467Z,100301.28
2022-11-08T19:14:58.664Z,100305.16
2022-11-08T19:18:06.101Z,100304.69
2022-11-08T19:21:02.941Z,100303.97
2022-11-08T19:23:49.464Z,100307.22
2022-11-08T19:26:41.203Z,100310.66
2022-11-08T19:29:32.507Z,100302.47
2022-11-08T19:32:19.084Z,100308.50
2022-11-08T19:35:04.798Z,100315.09
2022-11-08T19:37:51.682Z,100318.78
2022-11-08T19:40:36.210Z,100316.09
2022-11-08T19:43:18.424Z,100318.06
2022-11-08T19:46:06.214Z,100312.22
2022-11-08T19:48:47.594Z,100309.63
2022-11-08T19:51:32.336Z,100312.84
2022-11-08T19:54:16.901Z,100311.38
2022-11-08T19:57:04.598Z,100319.06
2022-11-08T19:59:52.896Z,100327.63
2022-11-08T20:02:39.225Z,100324.47
2022-11-08T20:05:28.973Z,100323.53
2022-11-08T20:08:14.946Z,100333.09
2022-11-08T20:11:18.777Z,100332.81
2022-11-08T20:14:10.766Z,100334.50
2022-11-08T20:17:18.298Z,100338.38
2022-11-08T20:20:10.135Z,100338.47
2022-11-08T20:23:07.769Z,100333.72
2022-11-08T20:25:54.779Z,100332.44
2022-11-08T20:28:41.742Z,100333.06
2022-11-08T20:31:38.936Z,100330.78
2022-11-08T20:34:29.824Z,100325.66
2022-11-08T20:37:24.341Z,100333.19
2022-11-08T20:40:10.493Z,100322.69
2022-11-08T20:42:59.027Z,100324.13
2022-11-08T20:45:50.873Z,100322.63
2022-11-08T20:48:28.842Z,100315.50
2022-11-08T20:51:17.739Z,100312.59
2022-11-08T20:54:07.156Z,100323.91
2022-11-08T20:57:07.401Z,100314.91
2022-11-08T20:59:47.686Z,100319.66
2022-11-08T21:02:44.909Z,100325.13
2022-11-08T21:05:34.567Z,100318.34
2022-11-08T21:11:32.683Z,100325.00
2022-11-08T21:14:24.186Z,100323.34
2022-11-08T21:17:25.121Z,100322.59
2022-11-08T21:20:05.818Z,100335.03
2022-11-08T21:22:45.105Z,100334.28
2022-11-08T21:25:26.929Z,100334.00
2022-11-08T21:28:10.512Z,100328.50
2022-11-08T21:30:52.468Z,100336.03
2022-11-08T21:33:31.091Z,100342.16
2022-11-08T21:36:12.875Z,100346.78
2022-11-08T21:38:59.747Z,100335.97
2022-11-08T21:41:44.898Z,100342.81
2022-11-08T21:44:32.921Z,100339.94
2022-11-08T21:47:13.564Z,100330.19
2022-11-08T21:49:54.415Z,100335.47
2022-11-08T21:52:40.297Z,100336.84
2022-11-08T21:55:25.776Z,100338.53
2022-11-08T21:58:14.638Z,100333.53
2022-11-08T22:00:59.958Z,100330.00
2022-11-08T22:03:53.238Z,100329.38
2022-11-08T22:06:47.684Z,100333.81
2022-11-08T22:09:40.128Z,100330.94
2022-11-08T22:12:23.920Z,100324.00
2022-11-08T22:15:04.873Z,100327.41
2022-11-08T22:21:28.811Z,100324.81
2022-11-08T22:24:05.914Z,100328.91
2022-11-08T22:26:48.943Z,100323.50
2022-11-08T22:29:42.907Z,100325.25
2022-11-08T22:32:26.167Z,100325.09
2022-11-08T22:35:15.111Z,100323.50
2022-11-08T22:37:58.329Z,100328.50
2022-11-08T22:40:46.513Z,100326.84
2022-11-08T22:43:38.145Z,100320.25
2022-11-08T22:46:21.028Z,100321.47
2022-11-08T22:49:11.248Z,100322.13
2022-11-08T22:51:55.070Z,100316.75
2022-11-08T22:54:38.922Z,100317.19
2022-11-08T22:57:30.787Z,100319.72
2022-11-08T23:00:19.878Z,100320.16
2022-11-08T23:02:59.950Z,100319.28
2022-11-08T23:05:45.181Z,100316.47
2022-11-08T23:08:25.924Z,100314.59
2022-11-08T23:11:31.272Z,100320.00
2022-11-08T23:14:37.186Z,100319.59
2022-11-08T23:17:18.175Z,100322.13
2022-11-08T23:20:15.763Z,100327.78
2022-11-08T23:23:18.285Z,100324.28
2022-11-08T23:26:04.547Z,100324.53
2022-11-08T23:29:02.903Z,100322.03
2022-11-08T23:31:48.137Z,100320.66
2022-11-08T23:34:29.926Z,100315.38
2022-11-08T23:37:19.951Z,100311.75
2022-11-08T23:40:23.307Z,100316.03
2022-11-08T23:43:33.021Z,100308.31
2022-11-08T23:46:28.743Z,100317.31
2022-11-08T23:49:15.800Z,100307.94
2022-11-08T23:52:08.860Z,100310.06
2022-11-08T23:55:03.994Z,100313.34
2022-11-08T23:57:47.903Z,100306.38
